Time;durP1;ratioP1;P1;durP2;ratioP2;P2;SDS_P1;SDS_P2;PMS_P1;PMS_P2;Temp;Humidity;BMP_temperature;BMP_pressure;BME280_temperature;BME280_humidity;BME280_pressure;Samples;Min_cycle;Max_cycle;Signal;HPM_P1;HPM_P2
2023/11/18 00:00:44;;;;;;;25.20;21.50;;;;;21.70;101311.00;;;;2065039;28;20230;-67
2023/11/18 00:01:44;;;;;;;22.90;19.30;;;;;21.70;101306.00;;;;2065704;28;20230;-67
2023/11/18 00:02:46;;;;;;;27.20;19.97;;;;;21.80;101303.00;;;;2064230;28;20238;-67
2023/11/18 00:03:46;;;;;;;24.95;19.70;;;;;21.80;101304.00;;;;2045742;28;20270;-67
2023/11/18 00:04:46;;;;;;;24.70;19.47;;;;;21.70;101308.00;;;;2056082;28;20212;-67
2023/11/18 00:05:47;;;;;;;25.17;19.67;;;;;21.70;101296.00;;;;2065312;28;20289;-67
2023/11/18 00:06:47;;;;;;;23.47;19.03;;;;;21.70;101299.00;;;;2069882;28;20218;-67
2023/11/18 00:07:48;;;;;;;23.03;18.60;;;;;21.70;101306.00;;;;2061889;28;20692;-67
2023/11/18 00:08:48;;;;;;;23.00;18.70;;;;;21.70;101305.00;;;;2053512;28;20227;-67
2023/11/18 00:09:48;;;;;;;19.43;17.33;;;;;21.70;101304.00;;;;2064494;28;20226;-67
2023/11/18 00:10:49;;;;;;;19.83;17.53;;;;;21.70;101298.00;;;;2064396;28;20223;-67
2023/11/18 00:11:49;;;;;;;21.90;17.77;;;;;21.70;101300.00;;;;2064817;28;20610;-67
2023/11/18 00:12:49;;;;;;;21.20;17.97;;;;;21.70;101308.00;;;;2064860;28;20280;-67
2023/11/18 00:13:50;;;;;;;22.30;17.77;;;;;21.70;101307.00;;;;2058704;28;20215;-67
2023/11/18 00:14:50;;;;;;;21.80;17.63;;;;;21.70;101306.00;;;;2064424;28;20222;-67
2023/11/18 00:15:51;;;;;;;19.30;17.03;;;;;21.70;101305.00;;;;2063786;28;20211;-67
2023/11/18 00:16:51;;;;;;;20.27;17.43;;;;;21.70;101312.00;;;;2063985;28;20239;-67
2023/11/18 00:17:52;;;;;;;20.20;16.63;;;;;21.70;101315.00;;;;2065484;28;20241;-67
2023/11/18 00:18:53;;;;;;;19.77;16.80;;;;;21.70;101309.00;;;;2059510;28;20217;-67
2023/11/18 00:19:53;;;;;;;22.43;17.20;;;;;21.70;101312.00;;;;2064728;28;20215;-67
2023/11/18 00:20:57;;;;;;;20.93;17.17;;;;;21.70;101309.00;;;;2066638;28;20207;-67
2023/11/18 00:21:57;;;;;;;20.58;16.25;;;;;21.70;101312.00;;;;2064779;28;20214;-66
2023/11/18 00:22:57;;;;;;;21.63;17.20;;;;;21.70;101307.00;;;;2067918;28;20245;-66
2023/11/18 00:23:58;;;;;;;19.70;16.30;;;;;21.70;101306.00;;;;2057904;28;20213;-66
2023/11/18 00:24:58;;;;;;;18.90;15.97;;;;;21.70;101307.00;;;;2063161;28;20246;-66
2023/11/18 00:25:58;;;;;;;19.73;15.43;;;;;21.70;101308.00;;;;2064496;28;20269;-66
2023/11/18 00:26:59;;;;;;;19.83;15.50;;;;;21.70;101299.00;;;;2064533;28;20207;-66
2023/11/18 00:27:59;;;;;;;18.30;15.20;;;;;21.70;101295.00;;;;2065040;28;20245;-66
2023/11/18 00:29:03;;;;;;;20.03;16.60;;;;;21.70;101305.00;;;;2055077;28;20215;-66
2023/11/18 00:30:13;;;;;;;18.92;14.82;;;;;21.70;101294.00;;;;2063883;28;20217;-66
2023/11/18 00:31:13;;;;;;;17.23;15.10;;;;;21.70;101296.00;;;;2064169;28;20211;-66
2023/11/18 00:32:13;;;;;;;20.73;16.00;;;;;21.70;101301.00;;;;2067260;28;20682;-66
2023/11/18 00:33:14;;;;;;;19.40;15.57;;;;;21.70;101306.00;;;;2054980;28;20697;-66
2023/11/18 00:34:14;;;;;;;18.43;15.27;;;;;21.60;101302.00;;;;2064439;28;20238;-66
2023/11/18 00:35:15;;;;;;;17.77;14.50;;;;;21.60;101310.00;;;;2064243;28;20226;-66
2023/11/18 00:36:15;;;;;;;16.07;14.07;;;;;21.60;101304.00;;;;2064526;28;20246;-66
2023/11/18 00:37:15;;;;;;;18.57;14.20;;;;;21.60;101297.00;;;;2068297;28;20272;-66
2023/11/18 00:38:16;;;;;;;16.90;14.07;;;;;21.60;101305.00;;;;2056382;28;20223;-66
2023/11/18 00:39:16;;;;;;;15.40;13.80;;;;;21.60;101301.00;;;;2065312;28;20286;-66
2023/11/18 00:40:19;;;;;;;20.47;14.70;;;;;21.60;101300.00;;;;2065918;28;20253;-66
2023/11/18 00:41:19;;;;;;;15.77;13.90;;;;;21.60;101299.00;;;;2063774;28;20613;-66
2023/11/18 00:42:20;;;;;;;14.67;13.07;;;;;21.60;101297.00;;;;2064268;28;20227;-66
2023/11/18 00:43:20;;;;;;;16.80;13.87;;;;;21.50;101298.00;;;;2054813;28;20580;-66
2023/11/18 00:44:21;;;;;;;16.97;13.93;;;;;21.50;101281.00;;;;2064035;28;20631;-66
2023/11/18 00:45:22;;;;;;;17.13;13.35;;;;;21.50;101295.00;;;;2064348;28;20241;-66
2023/11/18 00:46:22;;;;;;;15.70;13.13;;;;;21.50;101295.00;;;;2064089;28;20796;-67
2023/11/18 00:47:23;;;;;;;14.57;12.47;;;;;21.50;101296.00;;;;2064616;28;20595;-67
2023/11/18 00:48:23;;;;;;;16.53;13.20;;;;;21.50;101289.00;;;;2054601;28;20587;-67
2023/11/18 00:49:25;;;;;;;15.20;12.90;;;;;21.50;101295.00;;;;2063857;28;20222;-67
2023/11/18 00:50:26;;;;;;;15.43;13.32;;;;;21.50;101290.00;;;;2064255;28;20269;-67
2023/11/18 00:51:27;;;;;;;17.20;12.77;;;;;21.50;101292.00;;;;2067217;28;20221;-67
2023/11/18 00:52:28;;;;;;;16.00;13.73;;;;;21.50;101292.00;;;;2063869;28;20497;-66
2023/11/18 00:53:29;;;;;;;14.27;11.90;;;;;21.50;101283.00;;;;2047903;28;20491;-66
2023/11/18 00:54:30;;;;;;;16.17;12.60;;;;;21.40;101286.00;;;;2064536;28;20490;-66
2023/11/18 00:55:31;;;;;;;16.40;12.50;;;;;21.50;101279.00;;;;2064034;28;20686;-66
2023/11/18 00:56:32;;;;;;;14.95;13.27;;;;;21.50;101281.00;;;;2064702;28;20764;-67
2023/11/18 00:57:32;;;;;;;14.93;12.60;;;;;21.50;101285.00;;;;2064426;28;20301;-67
2023/11/18 00:58:35;;;;;;;13.07;11.67;;;;;21.50;101276.00;;;;2054939;28;20234;-67
2023/11/18 00:59:35;;;;;;;16.38;11.98;;;;;21.50;101282.00;;;;2064305;28;20219;-67
2023/11/18 01:00:36;;;;;;;14.87;12.80;;;;;21.50;101283.00;;;;2064950;28;20199;-66
2023/11/18 01:01:36;;;;;;;13.00;11.60;;;;;21.40;101284.00;;;;2064573;28;20214;-66
2023/11/18 01:02:38;;;;;;;15.00;12.00;;;;;21.40;101277.00;;;;2064540;28;20694;-66
2023/11/18 01:03:38;;;;;;;13.90;11.68;;;;;21.40;101281.00;;;;2060316;28;20749;-66
2023/11/18 01:04:39;;;;;;;13.27;11.37;;;;;21.40;101276.00;;;;2064492;28;20219;-66
2023/11/18 01:05:39;;;;;;;13.00;10.77;;;;;21.40;101275.00;;;;2063511;28;20225;-66
2023/11/18 01:06:39;;;;;;;13.17;11.13;;;;;21.40;101281.00;;;;2064453;28;20631;-66
2023/11/18 01:07:40;;;;;;;13.23;10.63;;;;;21.40;101279.00;;;;2063561;28;20590;-66
2023/11/18 01:08:44;;;;;;;15.53;11.47;;;;;21.40;101287.00;;;;2054813;28;20582;-67
2023/11/18 01:09:45;;;;;;;14.27;11.73;;;;;21.40;101286.00;;;;2063645;28;20248;-67
2023/11/18 01:10:45;;;;;;;15.35;11.77;;;;;21.40;101278.00;;;;2066373;28;20225;-66
2023/11/18 01:11:46;;;;;;;16.30;11.30;;;;;21.40;101284.00;;;;2063692;28;20828;-66
2023/11/18 01:12:46;;;;;;;14.47;11.33;;;;;21.40;101286.00;;;;2065436;28;20215;-66
2023/11/18 01:13:47;;;;;;;13.00;11.43;;;;;21.40;101284.00;;;;2060635;28;20237;-66
2023/11/18 01:14:47;;;;;;;13.93;11.43;;;;;21.40;101285.00;;;;2064528;28;20219;-66
2023/11/18 01:15:48;;;;;;;12.77;10.50;;;;;21.40;101285.00;;;;2069540;28;20240;-66
2023/11/18 01:16:49;;;;;;;13.52;10.88;;;;;21.30;101281.00;;;;2064304;28;20238;-66
2023/11/18 01:17:49;;;;;;;13.03;10.87;;;;;21.30;101290.00;;;;2063907;28;20211;-66
2023/11/18 01:18:50;;;;;;;14.33;11.33;;;;;21.30;101285.00;;;;2053855;28;20211;-66
2023/11/18 01:19:50;;;;;;;13.55;11.00;;;;;21.40;101291.00;;;;2065336;28;20334;-66
2023/11/18 01:20:51;;;;;;;14.83;11.33;;;;;21.30;101288.00;;;;2069028;28;20730;-66
2023/11/18 01:21:53;;;;;;;13.10;10.13;;;;;21.30;101279.00;;;;2062988;28;20602;-66
2023/11/18 01:22:53;;;;;;;11.68;10.43;;;;;21.30;101297.00;;;;2064260;28;20258;-66
2023/11/18 01:23:54;;;;;;;12.00;10.07;;;;;21.30;101294.00;;;;2054578;28;20681;-67
2023/11/18 01:24:54;;;;;;;13.33;10.70;;;;;21.30;101294.00;;;;2064932;28;20233;-66
2023/11/18 01:25:55;;;;;;;11.37;10.17;;;;;21.30;101294.00;;;;2062317;28;20244;-66
2023/11/18 01:26:56;;;;;;;12.05;10.05;;;;;21.30;101267.00;;;;2068832;28;20241;-66
2023/11/18 01:27:56;;;;;;;12.73;9.10;;;;;21.30;101299.00;;;;2063450;28;20211;-66
2023/11/18 01:28:56;;;;;;;10.67;9.57;;;;;21.30;101309.00;;;;2053201;28;20714;-66
2023/11/18 01:29:57;;;;;;;11.10;9.90;;;;;21.30;101302.00;;;;2064382;28;20616;-67
2023/11/18 01:30:57;;;;;;;11.17;9.63;;;;;21.30;101308.00;;;;2064235;28;20218;-67
2023/11/18 01:31:58;;;;;;;10.77;9.33;;;;;21.30;101304.00;;;;2065037;28;20253;-67
2023/11/18 01:33:02;;;;;;;11.07;8.80;;;;;21.30;101312.00;;;;2063452;28;20588;-67
2023/11/18 01:34:04;;;;;;;10.15;8.30;;;;;21.30;101312.00;;;;2055323;28;20674;-67
2023/11/18 01:35:05;;;;;;;11.45;9.75;;;;;21.30;101306.00;;;;2067027;28;20215;-67
2023/11/18 01:36:09;;;;;;;11.70;9.30;;;;;21.30;101311.00;;;;2063379;28;20215;-66
2023/11/18 01:37:09;;;;;;;11.27;9.45;;;;;21.30;101316.00;;;;2057837;28;20486;-66
2023/11/18 01:38:11;;;;;;;13.27;9.00;;;;;21.30;101317.00;;;;2059581;28;20230;-66
2023/11/18 01:39:13;;;;;;;11.85;9.98;;;;;21.30;101324.00;;;;2063535;28;20736;-66
2023/11/18 01:40:15;;;;;;;11.70;9.10;;;;;21.30;101316.00;;;;2063902;28;20662;-66
2023/11/18 01:41:15;;;;;;;10.15;8.63;;;;;21.30;101319.00;;;;2066312;28;20230;-66
2023/11/18 01:42:15;;;;;;;9.70;8.70;;;;;21.30;101321.00;;;;2058514;28;20750;-66
2023/11/18 01:43:17;;;;;;;11.23;9.47;;;;;21.20;101320.00;;;;2054269;28;20376;-66
2023/11/18 01:44:19;;;;;;;10.95;8.57;;;;;21.30;101317.00;;;;2063303;28;20219;-66
2023/11/18 01:45:19;;;;;;;9.32;8.10;;;;;21.30;101316.00;;;;2063259;28;20553;-66
2023/11/18 01:46:21;;;;;;;10.27;8.27;;;;;21.30;101325.00;;;;2063581;28;20280;-66
2023/11/18 01:47:22;;;;;;;10.23;8.55;;;;;21.30;101296.00;;;;2061462;28;20215;-66
2023/11/18 01:48:22;;;;;;;10.60;9.40;;;;;21.20;101325.00;;;;2056563;28;20710;-66
2023/11/18 01:49:23;;;;;;;9.53;8.53;;;;;21.20;101317.00;;;;2064849;28;20239;-66
2023/11/18 01:50:23;;;;;;;10.47;8.57;;;;;21.20;101315.00;;;;2063001;28;20304;-67
2023/11/18 01:51:24;;;;;;;9.63;8.10;;;;;21.20;101307.00;;;;2063259;28;20230;-66
2023/11/18 01:52:24;;;;;;;8.87;7.97;;;;;21.20;101314.00;;;;2064015;28;20222;-67
2023/11/18 01:53:25;;;;;;;10.13;8.30;;;;;21.20;101306.00;;;;2054359;28;20238;-67
2023/11/18 01:54:26;;;;;;;8.35;7.53;;;;;21.20;101318.00;;;;2063880;28;20223;-67
2023/11/18 01:55:27;;;;;;;9.17;8.10;;;;;21.20;101308.00;;;;2054817;28;20254;-67
2023/11/18 01:56:28;;;;;;;11.47;8.53;;;;;21.20;101314.00;;;;2054111;28;20235;-67
2023/11/18 01:57:28;;;;;;;9.55;7.75;;;;;21.20;101320.00;;;;2062446;28;20231;-67
2023/11/18 01:58:30;;;;;;;9.53;7.93;;;;;21.20;101306.00;;;;2054236;28;20278;-67
2023/11/18 01:59:33;;;;;;;9.68;7.95;;;;;21.10;101315.00;;;;2055055;28;20722;-67
2023/11/18 02:00:38;;;;;;;11.52;8.82;;;;;21.20;101308.00;;;;2052204;28;20243;-67
2023/11/18 02:01:39;;;;;;;9.70;8.18;;;;;21.20;101310.00;;;;2055751;28;20228;-67
2023/11/18 02:02:39;;;;;;;9.75;8.20;;;;;21.20;101314.00;;;;2066725;28;20214;-67
2023/11/18 02:03:42;;;;;;;9.13;8.10;;;;;21.20;101303.00;;;;2053439;28;20693;-67
2023/11/18 02:04:44;;;;;;;10.32;8.57;;;;;21.20;101302.00;;;;2062299;28;20218;-67
2023/11/18 02:05:45;;;;;;;10.00;7.35;;;;;21.10;101299.00;;;;2062795;28;20211;-66
2023/11/18 02:06:47;;;;;;;9.50;7.30;;;;;21.20;101294.00;;;;2063918;28;20241;-66
2023/11/18 02:07:48;;;;;;;9.23;8.20;;;;;21.10;101300.00;;;;2067831;28;20257;-66
2023/11/18 02:08:48;;;;;;;8.83;7.60;;;;;21.10;101300.00;;;;2053312;28;20651;-66
2023/11/18 02:09:48;;;;;;;8.27;7.37;;;;;21.10;101301.00;;;;2065073;28;20265;-66
2023/11/18 02:10:57;;;;;;;8.30;7.17;;;;;21.20;101311.00;;;;2063016;28;20280;-66
2023/11/18 02:12:16;;;;;;;9.38;8.10;;;;;21.20;101288.00;;;;2070334;28;20289;-66
2023/11/18 02:13:29;;;;;;;10.23;7.93;;;;;21.10;101300.00;;;;2053401;28;20289;-67
2023/11/18 02:14:29;;;;;;;9.63;8.05;;;;;21.10;101295.00;;;;2057333;28;20230;-66
2023/11/18 02:15:31;;;;;;;8.37;7.10;;;;;21.10;101295.00;;;;2057015;28;20251;-66
2023/11/18 02:16:32;;;;;;;10.13;8.23;;;;;21.10;101295.00;;;;2062948;28;20725;-66
2023/11/18 02:17:32;;;;;;;9.63;7.03;;;;;21.10;101293.00;;;;2054879;28;20218;-66
2023/11/18 02:18:33;;;;;;;8.00;6.70;;;;;21.10;101291.00;;;;2045316;28;20286;-66
2023/11/18 02:19:34;;;;;;;8.05;6.90;;;;;21.10;101295.00;;;;2062671;28;20222;-66
2023/11/18 02:20:35;;;;;;;8.23;7.37;;;;;21.10;101266.00;;;;2063077;28;20725;-66
2023/11/18 02:21:37;;;;;;;8.67;7.47;;;;;21.10;101268.00;;;;2054648;28;20549;-66
2023/11/18 02:22:37;;;;;;;9.25;7.05;;;;;21.10;101296.00;;;;2055149;28;20451;-66
2023/11/18 02:23:38;;;;;;;8.93;7.10;;;;;21.10;101296.00;;;;2053245;28;20222;-66
2023/11/18 02:24:40;;;;;;;10.23;7.70;;;;;21.00;101297.00;;;;2062559;28;20219;-66
2023/11/18 02:25:45;;;;;;;6.60;5.90;;;;;21.10;101303.00;;;;2062688;28;20336;-66
2023/11/18 02:26:46;;;;;;;9.25;7.32;;;;;21.00;101304.00;;;;2061425;28;20769;-66
2023/11/18 02:27:47;;;;;;;7.60;6.70;;;;;21.00;101297.00;;;;2062989;28;20215;-66
2023/11/18 02:28:48;;;;;;;8.63;6.65;;;;;21.00;101293.00;;;;2054683;28;20218;-66
2023/11/18 02:29:50;;;;;;;8.32;7.07;;;;;21.00;101286.00;;;;2070184;28;20263;-66
2023/11/18 02:30:54;;;;;;;7.85;6.53;;;;;21.00;101296.00;;;;2062762;28;20682;-66
2023/11/18 02:31:58;;;;;;;7.40;6.70;;;;;21.00;101291.00;;;;2063700;28;20773;-66
2023/11/18 02:33:05;;;;;;;8.55;7.15;;;;;21.10;101264.00;;;;2062655;28;20218;-66
2023/11/18 02:34:15;;;;;;;8.20;6.95;;;;;21.10;101287.00;;;;2044354;28;20218;-66
2023/11/18 02:35:20;;;;;;;8.10;6.95;;;;;21.00;101268.00;;;;2048614;28;20775;-66
2023/11/18 02:36:25;;;;;;;8.30;7.13;;;;;20.90;101261.00;;;;2053641;28;20235;-66
2023/11/18 02:37:27;;;;;;;7.70;6.25;;;;;21.00;101285.00;;;;2057434;28;20605;-66
2023/11/18 02:38:31;;;;;;;8.25;7.15;;;;;21.00;101284.00;;;;2045227;28;20222;-67
2023/11/18 02:39:38;;;;;;;7.20;6.20;;;;;21.00;101265.00;;;;2047356;28;20224;-67
2023/11/18 02:40:43;;;;;;;8.43;7.45;;;;;21.00;101294.00;;;;2056244;28;20229;-66
2023/11/18 02:41:45;;;;;;;7.60;6.40;;;;;21.00;101286.00;;;;2055662;28;20219;-66
2023/11/18 02:42:45;;;;;;;8.98;6.80;;;;;21.00;101296.00;;;;2062658;28;20222;-66
2023/11/18 02:43:46;;;;;;;8.23;6.60;;;;;21.00;101264.00;;;;2044764;28;20271;-66
2023/11/18 02:44:49;;;;;;;9.07;7.30;;;;;21.00;101246.00;;;;2054924;28;20223;-66
2023/11/18 02:45:49;;;;;;;7.63;6.38;;;;;21.00;101271.00;;;;2054465;28;20298;-66
2023/11/18 02:46:49;;;;;;;8.10;6.90;;;;;21.00;101275.00;;;;2055039;28;20211;-66
2023/11/18 02:47:50;;;;;;;7.27;6.17;;;;;21.00;101280.00;;;;2062580;28;20242;-66
2023/11/18 02:48:53;;;;;;;8.43;6.60;;;;;21.00;101272.00;;;;2052987;28;20202;-66
2023/11/18 02:49:56;;;;;;;7.70;6.70;;;;;21.00;101275.00;;;;2062901;28;20215;-66
2023/11/18 02:50:56;;;;;;;7.57;6.63;;;;;21.00;101279.00;;;;2062498;28;20243;-66
2023/11/18 02:51:57;;;;;;;7.90;7.03;;;;;21.00;101287.00;;;;2055181;28;20219;-66
2023/11/18 02:52:58;;;;;;;7.63;6.25;;;;;21.00;101289.00;;;;2054171;28;20225;-66
2023/11/18 02:53:59;;;;;;;8.50;6.87;;;;;21.00;101293.00;;;;2053236;28;20218;-66
2023/11/18 02:54:59;;;;;;;7.82;6.28;;;;;21.00;101286.00;;;;2063576;28;20462;-66
2023/11/18 02:56:02;;;;;;;7.77;6.17;;;;;21.00;101287.00;;;;2068850;28;20239;-66
2023/11/18 02:57:03;;;;;;;7.85;6.40;;;;;20.80;101292.00;;;;2063512;28;20232;-66
2023/11/18 02:58:03;;;;;;;7.30;6.03;;;;;21.00;101297.00;;;;2063133;28;20218;-66
2023/11/18 02:59:07;;;;;;;7.23;6.20;;;;;21.00;101295.00;;;;2053000;28;20207;-66
2023/11/18 03:00:17;;;;;;;9.13;6.65;;;;;20.90;101290.00;;;;2065734;28;20333;-66
2023/11/18 03:01:19;;;;;;;7.15;6.25;;;;;21.00;101296.00;;;;2066139;28;20627;-66
2023/11/18 03:02:20;;;;;;;8.82;6.15;;;;;21.00;101298.00;;;;2055898;28;20273;-66
2023/11/18 03:03:21;;;;;;;7.00;5.95;;;;;21.00;101296.00;;;;2053351;28;20219;-66
2023/11/18 03:04:23;;;;;;;8.13;6.50;;;;;20.90;101294.00;;;;2062166;28;20215;-66
2023/11/18 03:05:26;;;;;;;6.57;5.38;;;;;20.90;101294.00;;;;2062760;28;20277;-66
2023/11/18 03:06:26;;;;;;;7.15;5.88;;;;;21.00;101289.00;;;;2063357;28;20215;-66
2023/11/18 03:07:29;;;;;;;6.27;5.40;;;;;21.00;101297.00;;;;2068379;28;20221;-67
2023/11/18 03:08:29;;;;;;;6.70;6.00;;;;;21.00;101282.00;;;;2055342;28;20708;-66
2023/11/18 03:09:30;;;;;;;6.63;5.90;;;;;20.90;101282.00;;;;2062207;28;20226;-66
2023/11/18 03:10:33;;;;;;;6.30;5.57;;;;;20.90;101290.00;;;;2062981;28;20266;-66
2023/11/18 03:11:34;;;;;;;6.80;6.10;;;;;20.90;101285.00;;;;2062986;28;20228;-66
2023/11/18 03:12:34;;;;;;;6.70;5.50;;;;;20.90;101282.00;;;;2064575;28;20218;-66
2023/11/18 03:13:35;;;;;;;6.93;6.00;;;;;20.90;101278.00;;;;2046976;28;20966;-66
2023/11/18 03:14:35;;;;;;;7.57;5.97;;;;;20.90;101272.00;;;;2055956;28;20680;-66
2023/11/18 03:15:35;;;;;;;6.50;5.80;;;;;20.90;101266.00;;;;2064347;28;21009;-66
2023/11/18 03:16:38;;;;;;;7.27;6.03;;;;;20.90;101268.00;;;;2066722;28;20219;-66
2023/11/18 03:17:38;;;;;;;7.80;6.03;;;;;20.90;101269.00;;;;2065905;28;20389;-66
2023/11/18 03:18:39;;;;;;;6.27;5.60;;;;;20.90;101267.00;;;;2055910;28;20234;-66
2023/11/18 03:19:41;;;;;;;6.20;5.60;;;;;20.90;101264.00;;;;2072326;28;20268;-66
2023/11/18 03:20:41;;;;;;;7.50;5.75;;;;;20.90;101251.00;;;;2065371;28;20227;-66
2023/11/18 03:21:43;;;;;;;8.20;6.10;;;;;20.80;101248.00;;;;2063775;28;20852;-66
2023/11/18 03:22:44;;;;;;;6.70;6.03;;;;;20.90;101254.00;;;;2056606;28;20305;-66
2023/11/18 03:23:45;;;;;;;7.57;6.07;;;;;20.90;101263.00;;;;2055541;28;20230;-66
2023/11/18 03:24:45;;;;;;;6.47;5.80;;;;;20.90;101256.00;;;;2064508;28;20578;-66
2023/11/18 03:25:46;;;;;;;6.97;5.83;;;;;20.90;101263.00;;;;2064007;28;20269;-66
2023/11/18 03:26:47;;;;;;;7.40;5.68;;;;;20.90;101251.00;;;;2064223;28;20700;-66
2023/11/18 03:27:47;;;;;;;5.97;5.37;;;;;20.80;101249.00;;;;2056461;28;20294;-66
2023/11/18 03:28:47;;;;;;;7.50;5.97;;;;;20.80;101253.00;;;;2047064;28;20223;-66
2023/11/18 03:29:48;;;;;;;8.40;6.10;;;;;20.90;101261.00;;;;2064496;28;20233;-66
2023/11/18 03:30:48;;;;;;;7.13;5.70;;;;;20.90;101259.00;;;;2065385;28;20235;-66
2023/11/18 03:31:49;;;;;;;6.67;5.97;;;;;20.90;101264.00;;;;2065356;28;20233;-66
2023/11/18 03:32:49;;;;;;;6.80;5.43;;;;;20.80;101254.00;;;;2065143;28;20390;-66
2023/11/18 03:33:50;;;;;;;6.30;5.60;;;;;20.80;101247.00;;;;2055037;28;20239;-66
2023/11/18 03:34:50;;;;;;;7.23;6.17;;;;;20.80;101247.00;;;;2065210;28;20234;-66
2023/11/18 03:35:50;;;;;;;7.63;6.57;;;;;20.80;101249.00;;;;2064370;28;20948;-66
2023/11/18 03:36:52;;;;;;;7.10;5.70;;;;;20.80;101233.00;;;;2065076;28;20682;-66
2023/11/18 03:37:52;;;;;;;6.30;5.70;;;;;20.80;101238.00;;;;2064278;28;20273;-66
2023/11/18 03:38:52;;;;;;;8.27;5.47;;;;;20.80;101235.00;;;;2054242;28;20580;-66
2023/11/18 03:39:53;;;;;;;7.83;6.27;;;;;20.80;101237.00;;;;2065137;28;20582;-66
2023/11/18 03:40:53;;;;;;;6.50;5.30;;;;;20.80;101246.00;;;;2067707;28;20280;-66
2023/11/18 03:41:54;;;;;;;6.57;5.80;;;;;20.80;101246.00;;;;2065161;28;20254;-66
2023/11/18 03:42:54;;;;;;;5.83;5.00;;;;;20.80;101246.00;;;;2055615;28;20710;-66
2023/11/18 03:43:54;;;;;;;7.10;5.83;;;;;20.80;101246.00;;;;2046731;28;20375;-66
2023/11/18 03:44:55;;;;;;;6.90;5.27;;;;;20.80;101239.00;;;;2058498;28;20219;-66
2023/11/18 03:45:56;;;;;;;7.10;5.17;;;;;20.80;101244.00;;;;2064682;28;20215;-66
2023/11/18 03:46:56;;;;;;;6.53;5.82;;;;;20.80;101242.00;;;;2065046;28;20215;-66
2023/11/18 03:47:57;;;;;;;6.27;5.23;;;;;20.80;101240.00;;;;2067723;28;20921;-66
2023/11/18 03:48:57;;;;;;;7.23;5.37;;;;;20.80;101254.00;;;;2055496;28;20207;-67
2023/11/18 03:49:58;;;;;;;6.70;5.33;;;;;20.80;101243.00;;;;2064372;28;20272;-67
2023/11/18 03:50:58;;;;;;;7.17;5.90;;;;;20.70;101241.00;;;;2065072;28;20238;-67
2023/11/18 03:51:59;;;;;;;7.03;5.43;;;;;20.80;101246.00;;;;2064139;28;20449;-66
2023/11/18 03:53:01;;;;;;;6.40;5.23;;;;;20.80;101251.00;;;;2064735;28;20218;-66
2023/11/18 03:54:01;;;;;;;5.60;5.00;;;;;20.80;101260.00;;;;2055442;28;20219;-66
2023/11/18 03:55:03;;;;;;;6.20;5.60;;;;;20.80;101261.00;;;;2066050;28;20230;-66
2023/11/18 03:56:04;;;;;;;7.07;6.38;;;;;20.80;101267.00;;;;2064193;28;20222;-67
2023/11/18 03:57:05;;;;;;;7.90;6.67;;;;;20.80;101261.00;;;;2063737;28;20642;-67
2023/11/18 03:58:05;;;;;;;9.20;6.00;;;;;20.80;101266.00;;;;2072492;28;20211;-67
2023/11/18 03:59:05;;;;;;;6.20;5.20;;;;;20.80;101263.00;;;;2055390;28;20215;-66
2023/11/18 04:00:07;;;;;;;7.03;5.43;;;;;20.80;101256.00;;;;2064808;28;20281;-66
2023/11/18 04:01:07;;;;;;;7.45;5.00;;;;;20.80;101261.00;;;;2065040;28;20294;-66
2023/11/18 04:02:07;;;;;;;6.17;5.10;;;;;20.80;101259.00;;;;2064841;28;20210;-66
2023/11/18 04:03:09;;;;;;;6.63;4.73;;;;;20.80;101269.00;;;;2056243;28;20200;-66
2023/11/18 04:04:10;;;;;;;6.45;5.25;;;;;20.70;101263.00;;;;2049153;28;20618;-66
2023/11/18 04:05:10;;;;;;;7.00;5.20;;;;;20.80;101272.00;;;;2064480;28;20239;-66
2023/11/18 04:06:11;;;;;;;6.90;5.00;;;;;20.80;101272.00;;;;2064803;28;20567;-66
2023/11/18 04:07:11;;;;;;;6.10;4.97;;;;;20.70;101276.00;;;;2064501;28;20206;-66
2023/11/18 04:08:12;;;;;;;5.47;4.57;;;;;20.80;101263.00;;;;2054431;28;20468;-66
2023/11/18 04:09:14;;;;;;;5.93;4.85;;;;;20.70;101263.00;;;;2063695;28;20285;-66
2023/11/18 04:10:15;;;;;;;5.80;5.20;;;;;20.70;101260.00;;;;2064934;28;20210;-66
2023/11/18 04:11:15;;;;;;;6.03;5.03;;;;;20.80;101266.00;;;;2064401;28;20686;-66
2023/11/18 04:12:16;;;;;;;6.50;5.67;;;;;20.70;101261.00;;;;2064210;28;20354;-66
2023/11/18 04:13:16;;;;;;;6.30;5.30;;;;;20.70;101263.00;;;;2054251;28;20706;-66
2023/11/18 04:14:17;;;;;;;6.53;5.30;;;;;20.70;101257.00;;;;2064714;28;20879;-66
2023/11/18 04:15:17;;;;;;;6.30;5.13;;;;;20.70;101256.00;;;;2064686;28;20221;-66
2023/11/18 04:16:18;;;;;;;6.10;5.30;;;;;20.70;101264.00;;;;2070909;28;20218;-66
2023/11/18 04:17:19;;;;;;;6.00;5.00;;;;;20.70;101260.00;;;;2072140;28;20333;-66
2023/11/18 04:18:19;;;;;;;6.33;5.20;;;;;20.70;101269.00;;;;2055125;28;20658;-66
2023/11/18 04:19:19;;;;;;;5.20;4.70;;;;;20.70;101265.00;;;;2067816;28;20293;-66
2023/11/18 04:20:20;;;;;;;5.90;4.70;;;;;20.70;101265.00;;;;2064938;28;20211;-66
2023/11/18 04:21:20;;;;;;;6.03;4.87;;;;;20.70;101264.00;;;;2064279;28;20250;-66
2023/11/18 04:22:21;;;;;;;6.20;5.17;;;;;20.70;101261.00;;;;2064853;28;20284;-66
2023/11/18 04:23:22;;;;;;;6.55;5.63;;;;;20.70;101269.00;;;;2053717;28;20230;-66
2023/11/18 04:24:22;;;;;;;5.37;4.70;;;;;20.70;101271.00;;;;2064753;28;20245;-66
2023/11/18 04:25:23;;;;;;;6.20;4.63;;;;;20.70;101264.00;;;;2064729;28;20225;-66
2023/11/18 04:26:24;;;;;;;8.10;5.00;;;;;20.70;101257.00;;;;2063890;28;20225;-66
2023/11/18 04:27:24;;;;;;;5.28;4.60;;;;;20.70;101259.00;;;;2064726;28;20219;-66
2023/11/18 04:28:26;;;;;;;5.73;4.43;;;;;20.70;101259.00;;;;2057770;28;20976;-66
2023/11/18 04:29:27;;;;;;;6.60;5.20;;;;;20.60;101251.00;;;;2067686;28;20297;-66
2023/11/18 04:30:27;;;;;;;5.17;4.43;;;;;20.70;101259.00;;;;2065159;28;20931;-66
2023/11/18 04:31:27;;;;;;;5.87;5.27;;;;;20.70;101254.00;;;;2067725;28;20702;-66
2023/11/18 04:32:28;;;;;;;6.00;5.07;;;;;20.60;101234.00;;;;2064225;28;20259;-66
2023/11/18 04:33:29;;;;;;;6.07;4.60;;;;;20.60;101240.00;;;;2058602;28;20222;-66
2023/11/18 04:34:29;;;;;;;5.05;4.55;;;;;20.60;101245.00;;;;2061928;28;20218;-66
2023/11/18 04:35:30;;;;;;;5.53;4.60;;;;;20.60;101240.00;;;;2063779;28;20243;-66
2023/11/18 04:36:31;;;;;;;6.00;4.73;;;;;20.60;101234.00;;;;2064598;28;20219;-66
2023/11/18 04:37:32;;;;;;;5.43;4.75;;;;;20.60;101235.00;;;;2064321;28;20273;-66
2023/11/18 04:38:32;;;;;;;5.90;4.90;;;;;20.60;101231.00;;;;2054374;28;20235;-66
2023/11/18 04:39:32;;;;;;;6.20;4.80;;;;;20.60;101224.00;;;;2063922;28;20245;-66
2023/11/18 04:40:33;;;;;;;5.63;4.80;;;;;20.60;101221.00;;;;2068957;28;20300;-66
2023/11/18 04:41:33;;;;;;;6.23;5.10;;;;;20.60;101223.00;;;;2067023;28;20249;-66
2023/11/18 04:42:34;;;;;;;4.67;4.00;;;;;20.60;101216.00;;;;2063994;28;20722;-66
2023/11/18 04:43:34;;;;;;;5.97;5.37;;;;;20.60;101210.00;;;;2055080;28;20242;-66
2023/11/18 04:44:34;;;;;;;5.73;4.53;;;;;20.60;101209.00;;;;2064281;28;20239;-66
2023/11/18 04:45:35;;;;;;;4.73;4.00;;;;;20.60;101205.00;;;;2065008;28;20211;-67
2023/11/18 04:46:36;;;;;;;5.30;4.53;;;;;20.60;101211.00;;;;2064623;28;20207;-66
2023/11/18 04:47:38;;;;;;;5.55;4.28;;;;;20.60;101207.00;;;;2068045;28;20206;-66
2023/11/18 04:48:39;;;;;;;5.10;4.57;;;;;20.60;101207.00;;;;2056781;28;20698;-66
2023/11/18 04:49:40;;;;;;;5.57;4.90;;;;;20.60;101201.00;;;;2064353;28;20223;-66
2023/11/18 04:50:43;;;;;;;6.25;5.13;;;;;20.60;101200.00;;;;2064568;28;20249;-66
2023/11/18 04:51:44;;;;;;;5.00;4.22;;;;;20.60;101194.00;;;;2064648;28;20227;-66
2023/11/18 04:52:44;;;;;;;5.33;4.10;;;;;20.60;101196.00;;;;2064744;28;20642;-66
2023/11/18 04:53:45;;;;;;;4.73;4.23;;;;;20.60;101207.00;;;;2055059;28;20230;-66
2023/11/18 04:54:47;;;;;;;4.60;4.20;;;;;20.60;101212.00;;;;2067218;28;20245;-66
2023/11/18 04:55:48;;;;;;;5.50;4.43;;;;;20.60;101201.00;;;;2064799;28;20314;-66
2023/11/18 04:56:48;;;;;;;6.10;4.80;;;;;20.60;101196.00;;;;2064214;28;20219;-66
2023/11/18 04:57:48;;;;;;;4.67;4.13;;;;;20.60;101196.00;;;;2063852;28;20234;-66
2023/11/18 04:58:49;;;;;;;5.23;4.73;;;;;20.60;101196.00;;;;2054073;28;20222;-66
2023/11/18 04:59:49;;;;;;;5.50;4.33;;;;;20.60;101198.00;;;;2064824;28;20263;-66